sensor_id;sensor_type;location;lat;lon;timestamp;P1;durP1;ratioP1;P2;durP2;ratioP2
27979;SDS011;15315;50.836;4.430;2023-04-19T00:07:54;33.38;;;22.17;;
27979;SDS011;15315;50.836;4.430;2023-04-19T00:17:54;29.48;;;22.00;;
27979;SDS011;15315;50.836;4.430;2023-04-19T00:27:55;30.67;;;21.67;;
27979;SDS011;15315;50.836;4.430;2023-04-19T00:37:55;36.10;;;23.75;;
27979;SDS011;15315;50.836;4.430;2023-04-19T00:47:56;29.90;;;22.10;;
27979;SDS011;15315;50.836;4.430;2023-04-19T00:57:56;31.48;;;22.75;;
27979;SDS011;15315;50.836;4.430;2023-04-19T01:07:57;37.73;;;23.20;;
27979;SDS011;15315;50.836;4.430;2023-04-19T01:17:57;34.45;;;25.05;;
27979;SDS011;15315;50.836;4.430;2023-04-19T01:27:58;37.50;;;25.38;;
27979;SDS011;15315;50.836;4.430;2023-04-19T01:37:58;40.72;;;25.95;;
27979;SDS011;15315;50.836;4.430;2023-04-19T01:48:00;39.63;;;24.65;;
27979;SDS011;15315;50.836;4.430;2023-04-19T01:58:01;35.55;;;24.52;;
27979;SDS011;15315;50.836;4.430;2023-04-19T02:08:02;32.95;;;24.33;;
27979;SDS011;15315;50.836;4.430;2023-04-19T02:18:02;33.72;;;23.48;;
27979;SDS011;15315;50.836;4.430;2023-04-19T02:28:05;34.10;;;23.77;;
27979;SDS011;15315;50.836;4.430;2023-04-19T02:38:06;31.35;;;23.00;;
27979;SDS011;15315;50.836;4.430;2023-04-19T02:48:06;31.10;;;22.73;;
27979;SDS011;15315;50.836;4.430;2023-04-19T02:58:06;30.02;;;21.92;;
27979;SDS011;15315;50.836;4.430;2023-04-19T03:08:07;29.20;;;20.57;;
27979;SDS011;15315;50.836;4.430;2023-04-19T03:18:09;29.13;;;21.50;;
27979;SDS011;15315;50.836;4.430;2023-04-19T03:28:10;27.63;;;20.10;;
27979;SDS011;15315;50.836;4.430;2023-04-19T03:38:10;31.27;;;21.13;;
27979;SDS011;15315;50.836;4.430;2023-04-19T03:48:10;29.88;;;21.17;;
27979;SDS011;15315;50.836;4.430;2023-04-19T03:58:11;28.52;;;20.95;;
27979;SDS011;15315;50.836;4.430;2023-04-19T04:08:11;31.58;;;21.63;;
27979;SDS011;15315;50.836;4.430;2023-04-19T04:18:13;34.65;;;22.35;;
27979;SDS011;15315;50.836;4.430;2023-04-19T04:28:13;32.40;;;21.55;;
27979;SDS011;15315;50.836;4.430;2023-04-19T04:38:14;31.30;;;22.48;;
27979;SDS011;15315;50.836;4.430;2023-04-19T04:48:14;36.95;;;21.67;;
27979;SDS011;15315;50.836;4.430;2023-04-19T04:58:15;35.72;;;22.73;;
27979;SDS011;15315;50.836;4.430;2023-04-19T05:08:15;36.38;;;23.67;;
27979;SDS011;15315;50.836;4.430;2023-04-19T05:18:15;37.42;;;23.95;;
27979;SDS011;15315;50.836;4.430;2023-04-19T05:28:16;40.45;;;22.83;;
27979;SDS011;15315;50.836;4.430;2023-04-19T05:38:16;37.78;;;23.25;;
27979;SDS011;15315;50.836;4.430;2023-04-19T05:48:17;39.55;;;23.80;;
27979;SDS011;15315;50.836;4.430;2023-04-19T05:58:18;37.60;;;22.85;;
27979;SDS011;15315;50.836;4.430;2023-04-19T06:08:18;33.45;;;22.15;;
27979;SDS011;15315;50.836;4.430;2023-04-19T06:18:18;35.53;;;21.95;;
27979;SDS011;15315;50.836;4.430;2023-04-19T06:28:19;38.75;;;22.58;;
27979;SDS011;15315;50.836;4.430;2023-04-19T06:38:19;31.13;;;21.35;;
27979;SDS011;15315;50.836;4.430;2023-04-19T06:48:20;35.17;;;19.40;;
27979;SDS011;15315;50.836;4.430;2023-04-19T06:58:20;28.80;;;19.98;;
27979;SDS011;15315;50.836;4.430;2023-04-19T07:08:21;31.85;;;18.80;;
27979;SDS011;15315;50.836;4.430;2023-04-19T07:18:22;23.70;;;16.13;;
27979;SDS011;15315;50.836;4.430;2023-04-19T07:28:23;26.27;;;17.75;;
27979;SDS011;15315;50.836;4.430;2023-04-19T07:38:23;25.80;;;16.30;;
27979;SDS011;15315;50.836;4.430;2023-04-19T07:48:24;25.77;;;15.45;;
27979;SDS011;15315;50.836;4.430;2023-04-19T07:58:24;23.42;;;15.63;;
27979;SDS011;15315;50.836;4.430;2023-04-19T08:08:26;23.55;;;13.82;;
27979;SDS011;15315;50.836;4.430;2023-04-19T08:18:26;20.52;;;14.15;;
27979;SDS011;15315;50.836;4.430;2023-04-19T08:28:27;22.25;;;13.77;;
27979;SDS011;15315;50.836;4.430;2023-04-19T08:38:27;23.95;;;13.73;;
27979;SDS011;15315;50.836;4.430;2023-04-19T08:48:29;20.65;;;13.68;;
27979;SDS011;15315;50.836;4.430;2023-04-19T08:58:35;21.15;;;12.52;;
27979;SDS011;15315;50.836;4.430;2023-04-19T09:08:35;17.98;;;11.85;;
27979;SDS011;15315;50.836;4.430;2023-04-19T09:18:51;17.08;;;10.85;;
27979;SDS011;15315;50.836;4.430;2023-04-19T09:28:57;31.88;;;13.48;;
27979;SDS011;15315;50.836;4.430;2023-04-19T09:39:01;26.13;;;12.27;;
27979;SDS011;15315;50.836;4.430;2023-04-19T09:49:14;18.50;;;10.85;;
27979;SDS011;15315;50.836;4.430;2023-04-19T09:59:26;12.50;;;9.05;;
27979;SDS011;15315;50.836;4.430;2023-04-19T10:09:26;19.02;;;9.80;;
27979;SDS011;15315;50.836;4.430;2023-04-19T10:19:27;13.80;;;8.65;;
27979;SDS011;15315;50.836;4.430;2023-04-19T10:30:03;13.18;;;8.20;;
27979;SDS011;15315;50.836;4.430;2023-04-19T10:39:58;10.70;;;7.35;;
27979;SDS011;15315;50.836;4.430;2023-04-19T10:49:58;11.95;;;7.50;;
27979;SDS011;15315;50.836;4.430;2023-04-19T11:00:18;10.05;;;6.60;;
27979;SDS011;15315;50.836;4.430;2023-04-19T11:10:28;12.95;;;8.23;;
27979;SDS011;15315;50.836;4.430;2023-04-19T11:20:30;17.33;;;7.70;;
27979;SDS011;15315;50.836;4.430;2023-04-19T11:30:30;16.00;;;7.75;;
27979;SDS011;15315;50.836;4.430;2023-04-19T11:40:31;13.05;;;7.82;;
27979;SDS011;15315;50.836;4.430;2023-04-19T11:50:42;10.25;;;7.55;;
27979;SDS011;15315;50.836;4.430;2023-04-19T12:00:45;13.18;;;7.78;;
27979;SDS011;15315;50.836;4.430;2023-04-19T12:10:55;15.85;;;7.85;;
27979;SDS011;15315;50.836;4.430;2023-04-19T12:20:57;15.35;;;7.45;;
27979;SDS011;15315;50.836;4.430;2023-04-19T12:30:57;9.30;;;6.55;;
27979;SDS011;15315;50.836;4.430;2023-04-19T12:40:58;8.97;;;6.00;;
27979;SDS011;15315;50.836;4.430;2023-04-19T12:50:58;12.10;;;7.00;;
27979;SDS011;15315;50.836;4.430;2023-04-19T13:00:59;15.05;;;5.55;;
27979;SDS011;15315;50.836;4.430;2023-04-19T13:10:59;13.48;;;6.07;;
27979;SDS011;15315;50.836;4.430;2023-04-19T13:21:00;14.65;;;5.75;;
27979;SDS011;15315;50.836;4.430;2023-04-19T13:31:00;12.57;;;4.78;;
27979;SDS011;15315;50.836;4.430;2023-04-19T13:41:02;8.07;;;4.38;;
27979;SDS011;15315;50.836;4.430;2023-04-19T13:51:03;11.60;;;4.95;;
27979;SDS011;15315;50.836;4.430;2023-04-19T14:01:03;12.77;;;4.35;;
27979;SDS011;15315;50.836;4.430;2023-04-19T14:11:04;10.07;;;3.40;;
27979;SDS011;15315;50.836;4.430;2023-04-19T14:21:05;5.05;;;2.67;;
27979;SDS011;15315;50.836;4.430;2023-04-19T14:31:05;5.28;;;2.53;;
27979;SDS011;15315;50.836;4.430;2023-04-19T14:41:05;9.65;;;2.75;;
27979;SDS011;15315;50.836;4.430;2023-04-19T14:51:06;8.90;;;2.73;;
27979;SDS011;15315;50.836;4.430;2023-04-19T15:01:13;8.20;;;3.22;;
27979;SDS011;15315;50.836;4.430;2023-04-19T15:11:14;7.78;;;2.95;;
27979;SDS011;15315;50.836;4.430;2023-04-19T15:21:17;6.50;;;2.70;;
27979;SDS011;15315;50.836;4.430;2023-04-19T15:31:18;9.68;;;2.50;;
27979;SDS011;15315;50.836;4.430;2023-04-19T15:41:18;6.85;;;2.97;;
27979;SDS011;15315;50.836;4.430;2023-04-19T15:51:18;6.45;;;2.67;;
27979;SDS011;15315;50.836;4.430;2023-04-19T16:01:19;6.97;;;2.53;;
27979;SDS011;15315;50.836;4.430;2023-04-19T16:11:21;6.03;;;2.53;;
27979;SDS011;15315;50.836;4.430;2023-04-19T16:21:22;10.82;;;2.47;;
27979;SDS011;15315;50.836;4.430;2023-04-19T16:31:22;11.75;;;3.25;;
27979;SDS011;15315;50.836;4.430;2023-04-19T16:41:22;8.95;;;2.95;;
27979;SDS011;15315;50.836;4.430;2023-04-19T16:51:23;11.40;;;3.03;;
27979;SDS011;15315;50.836;4.430;2023-04-19T17:01:23;9.65;;;3.47;;
27979;SDS011;15315;50.836;4.430;2023-04-19T17:11:24;7.25;;;3.70;;
27979;SDS011;15315;50.836;4.430;2023-04-19T17:21:24;9.23;;;3.60;;
27979;SDS011;15315;50.836;4.430;2023-04-19T17:31:24;6.13;;;3.92;;
27979;SDS011;15315;50.836;4.430;2023-04-19T17:41:25;6.20;;;3.47;;
27979;SDS011;15315;50.836;4.430;2023-04-19T17:51:26;12.38;;;4.25;;
27979;SDS011;15315;50.836;4.430;2023-04-19T18:01:26;7.60;;;4.45;;
27979;SDS011;15315;50.836;4.430;2023-04-19T18:11:28;7.13;;;4.03;;
27979;SDS011;15315;50.836;4.430;2023-04-19T18:21:28;9.75;;;4.88;;
27979;SDS011;15315;50.836;4.430;2023-04-19T18:31:29;7.57;;;4.60;;
27979;SDS011;15315;50.836;4.430;2023-04-19T18:41:30;10.48;;;4.05;;
27979;SDS011;15315;50.836;4.430;2023-04-19T18:51:30;5.60;;;4.32;;
27979;SDS011;15315;50.836;4.430;2023-04-19T19:01:31;11.23;;;5.50;;
27979;SDS011;15315;50.836;4.430;2023-04-19T19:11:32;7.15;;;4.43;;
27979;SDS011;15315;50.836;4.430;2023-04-19T19:21:32;6.95;;;4.00;;
27979;SDS011;15315;50.836;4.430;2023-04-19T19:31:33;11.23;;;4.25;;
27979;SDS011;15315;50.836;4.430;2023-04-19T19:41:33;6.78;;;4.05;;
27979;SDS011;15315;50.836;4.430;2023-04-19T19:51:33;5.75;;;4.10;;
27979;SDS011;15315;50.836;4.430;2023-04-19T20:01:34;6.47;;;3.80;;
27979;SDS011;15315;50.836;4.430;2023-04-19T20:11:34;7.38;;;3.88;;
27979;SDS011;15315;50.836;4.430;2023-04-19T20:21:35;7.82;;;3.50;;
27979;SDS011;15315;50.836;4.430;2023-04-19T20:31:36;5.80;;;3.00;;
27979;SDS011;15315;50.836;4.430;2023-04-19T20:41:37;11.18;;;3.53;;
27979;SDS011;15315;50.836;4.430;2023-04-19T20:51:38;6.20;;;2.50;;
27979;SDS011;15315;50.836;4.430;2023-04-19T21:01:38;5.13;;;2.70;;
27979;SDS011;15315;50.836;4.430;2023-04-19T21:11:38;4.78;;;2.38;;
27979;SDS011;15315;50.836;4.430;2023-04-19T21:21:39;12.43;;;2.92;;
27979;SDS011;15315;50.836;4.430;2023-04-19T21:31:40;4.95;;;2.78;;
27979;SDS011;15315;50.836;4.430;2023-04-19T21:41:40;5.72;;;2.70;;
27979;SDS011;15315;50.836;4.430;2023-04-19T21:51:41;5.53;;;2.60;;
27979;SDS011;15315;50.836;4.430;2023-04-19T22:01:41;7.78;;;3.20;;
27979;SDS011;15315;50.836;4.430;2023-04-19T22:11:41;10.65;;;3.08;;
27979;SDS011;15315;50.836;4.430;2023-04-19T22:21:42;9.63;;;3.00;;
27979;SDS011;15315;50.836;4.430;2023-04-19T22:31:42;5.35;;;2.55;;
27979;SDS011;15315;50.836;4.430;2023-04-19T22:41:43;7.63;;;2.80;;
27979;SDS011;15315;50.836;4.430;2023-04-19T22:51:44;5.28;;;2.97;;
27979;SDS011;15315;50.836;4.430;2023-04-19T23:01:44;10.88;;;3.28;;
27979;SDS011;15315;50.836;4.430;2023-04-19T23:11:46;6.65;;;3.40;;
27979;SDS011;15315;50.836;4.430;2023-04-19T23:21:46;5.45;;;3.13;;
27979;SDS011;15315;50.836;4.430;2023-04-19T23:31:47;10.40;;;3.30;;
27979;SDS011;15315;50.836;4.430;2023-04-19T23:41:47;4.85;;;2.88;;
27979;SDS011;15315;50.836;4.430;2023-04-19T23:51:48;7.55;;;2.60;;
